Time;durP1;ratioP1;P1;durP2;ratioP2;P2;SDS_P1;SDS_P2;PMS_P1;PMS_P2;Temp;Humidity;BMP_temperature;BMP_pressure;BME280_temperature;BME280_humidity;BME280_pressure;Samples;Min_cycle;Max_cycle;Signal;HPM_P1;HPM_P2
2022/05/07 00:00:42;;;;;;;0.68;0.68;;;;;;;;;;4951009;28;20055;-83
2022/05/07 00:03:08;;;;;;;0.47;0.47;;;;;;;;;;4948236;28;20027;-83
2022/05/07 00:05:34;;;;;;;1.77;0.75;;;;;;;;;;4948484;28;20486;-84
2022/05/07 00:08:00;;;;;;;7.30;0.97;;;;;;;;;;4949171;28;20118;-84
2022/05/07 00:10:26;;;;;;;0.50;0.50;;;;;;;;;;4950365;28;20583;-84
2022/05/07 00:12:53;;;;;;;0.43;0.43;;;;;;;;;;4950496;28;20043;-83
2022/05/07 00:15:19;;;;;;;0.22;0.22;;;;;;;;;;4949385;28;20041;-83
2022/05/07 00:18:05;;;;;;;0.20;0.20;;;;;;;;;;4946611;28;20071;-83
2022/05/07 00:20:32;;;;;;;0.13;0.13;;;;;;;;;;4959591;28;20061;-83
2022/05/07 00:22:58;;;;;;;0.10;0.10;;;;;;;;;;4949277;28;20039;-83
2022/05/07 00:25:25;;;;;;;0.43;0.43;;;;;;;;;;4950516;28;20570;-84
2022/05/07 00:27:51;;;;;;;0.47;0.47;;;;;;;;;;4950801;28;20052;-83
2022/05/07 00:30:17;;;;;;;0.70;0.70;;;;;;;;;;4949057;28;20038;-81
2022/05/07 00:32:43;;;;;;;0.30;0.30;;;;;;;;;;4947999;28;20071;-80
2022/05/07 00:35:10;;;;;;;0.40;0.40;;;;;;;;;;4951293;28;20557;-80
2022/05/07 00:37:36;;;;;;;;;;;;;;;;;;4950332;28;20039;-84
2022/05/07 00:40:02;;;;;;;0.08;0.05;;;;;;;;;;4949272;28;19932;-84
2022/05/07 00:42:28;;;;;;;0.30;0.30;;;;;;;;;;4945638;28;20027;-83
2022/05/07 00:44:54;;;;;;;1.35;1.05;;;;;;;;;;4961322;28;20046;-83
2022/05/07 00:47:34;;;;;;;0.30;0.30;;;;;;;;;;4950464;28;20114;-83
2022/05/07 00:52:46;;;;;;;0.77;0.20;;;;;;;;;;4949639;28;20073;-84
2022/05/07 00:55:13;;;;;;;0.10;0.10;;;;;;;;;;4949178;28;20027;-84
2022/05/07 00:57:39;;;;;;;;;;;;;;;;;;4946758;28;20031;-85
2022/05/07 01:00:06;;;;;;;1.17;1.00;;;;;;;;;;4960471;28;19917;-82
2022/05/07 01:02:32;;;;;;;0.50;0.50;;;;;;;;;;4948487;28;20049;-81
2022/05/07 01:04:58;;;;;;;5.07;0.40;;;;;;;;;;4949321;28;20027;-82
2022/05/07 01:07:24;;;;;;;0.43;0.40;;;;;;;;;;4949634;28;20062;-83
2022/05/07 01:09:50;;;;;;;0.28;0.28;;;;;;;;;;4948822;28;20038;-83
2022/05/07 01:12:17;;;;;;;0.30;0.30;;;;;;;;;;4947486;28;20034;-83
2022/05/07 01:14:43;;;;;;;0.25;0.25;;;;;;;;;;4946978;28;20118;-83
2022/05/07 01:17:09;;;;;;;0.47;0.47;;;;;;;;;;4945851;28;20023;-83
2022/05/07 01:19:36;;;;;;;0.47;0.47;;;;;;;;;;4948360;28;20039;-83
2022/05/07 01:22:02;;;;;;;1.17;0.50;;;;;;;;;;4953996;28;20042;-83
2022/05/07 01:24:28;;;;;;;0.30;0.30;;;;;;;;;;4960305;28;20031;-83
2022/05/07 01:26:54;;;;;;;0.30;0.30;;;;;;;;;;4945483;28;20043;-83
2022/05/07 01:29:20;;;;;;;0.20;0.20;;;;;;;;;;4949941;28;20031;-83
2022/05/07 01:31:46;;;;;;;2.63;0.33;;;;;;;;;;4954920;28;20100;-83
2022/05/07 01:34:12;;;;;;;15.83;1.23;;;;;;;;;;4954707;28;20050;-83
2022/05/07 01:36:38;;;;;;;0.52;0.52;;;;;;;;;;4949395;28;20114;-83
2022/05/07 01:39:04;;;;;;;1.87;0.47;;;;;;;;;;4945006;28;20038;-83
2022/05/07 01:41:30;;;;;;;0.20;0.20;;;;;;;;;;4947924;28;20089;-83
2022/05/07 01:43:56;;;;;;;0.47;0.30;;;;;;;;;;4949506;28;20027;-83
2022/05/07 01:49:07;;;;;;;0.20;0.20;;;;;;;;;;4955083;28;20094;-82
2022/05/07 01:51:34;;;;;;;0.70;0.70;;;;;;;;;;4949315;28;20620;-80
2022/05/07 01:54:00;;;;;;;0.88;0.88;;;;;;;;;;4945294;28;20122;-82
2022/05/07 01:56:26;;;;;;;1.83;0.63;;;;;;;;;;4949590;28;20102;-82
2022/05/07 01:58:53;;;;;;;0.20;0.20;;;;;;;;;;4960737;28;20054;-81
2022/05/07 02:01:20;;;;;;;0.40;0.40;;;;;;;;;;4953816;28;20035;-81
2022/05/07 02:03:46;;;;;;;0.20;0.20;;;;;;;;;;4947561;28;20114;-81
2022/05/07 02:06:12;;;;;;;0.30;0.30;;;;;;;;;;4946610;28;20035;-79
2022/05/07 02:08:38;;;;;;;0.20;0.20;;;;;;;;;;4948223;28;20098;-79
2022/05/07 02:11:04;;;;;;;0.40;0.30;;;;;;;;;;4953672;28;20043;-82
2022/05/07 02:13:30;;;;;;;0.20;0.20;;;;;;;;;;4953055;28;20549;-79
2022/05/07 02:15:56;;;;;;;1.23;1.20;;;;;;;;;;4951877;28;20102;-80
2022/05/07 02:18:22;;;;;;;0.90;0.90;;;;;;;;;;4951014;28;20097;-80
2022/05/07 02:20:49;;;;;;;0.40;0.40;;;;;;;;;;4949765;28;20420;-80
2022/05/07 02:23:16;;;;;;;1.15;0.75;;;;;;;;;;4953410;28;20031;-80
2022/05/07 02:25:42;;;;;;;0.13;0.13;;;;;;;;;;4952439;28;20041;-80
2022/05/07 02:28:08;;;;;;;0.88;0.85;;;;;;;;;;4950065;28;20030;-85
2022/05/07 02:30:34;;;;;;;0.50;0.50;;;;;;;;;;4952423;28;20033;-84
2022/05/07 02:33:00;;;;;;;0.40;0.40;;;;;;;;;;4948736;28;20041;-77
2022/05/07 02:35:26;;;;;;;0.22;0.22;;;;;;;;;;4953532;28;20023;-76
2022/05/07 02:37:54;;;;;;;0.77;0.77;;;;;;;;;;4950016;28;20050;-76
2022/05/07 02:40:20;;;;;;;0.10;0.10;;;;;;;;;;4952308;28;20027;-77
2022/05/07 02:42:46;;;;;;;0.40;0.40;;;;;;;;;;4952548;28;20026;-77
2022/05/07 02:45:13;;;;;;;0.23;0.23;;;;;;;;;;4949952;28;20522;-77
2022/05/07 02:47:41;;;;;;;0.68;0.47;;;;;;;;;;4950111;28;20031;-76
2022/05/07 02:50:08;;;;;;;0.45;0.45;;;;;;;;;;4952995;28;20082;-77
2022/05/07 02:52:35;;;;;;;0.30;0.30;;;;;;;;;;4953005;28;20047;-77
2022/05/07 02:55:01;;;;;;;;;;;;;;;;;;4953334;28;20027;-77
2022/05/07 02:57:28;;;;;;;0.43;0.43;;;;;;;;;;4946603;29;20450;-77
2022/05/07 02:59:54;;;;;;;0.10;0.10;;;;;;;;;;4964197;28;20498;-78
2022/05/07 03:02:20;;;;;;;0.30;0.30;;;;;;;;;;4952893;28;20027;-77
2022/05/07 03:04:47;;;;;;;1.45;0.52;;;;;;;;;;4952163;28;20066;-78
2022/05/07 03:07:14;;;;;;;0.50;0.50;;;;;;;;;;4951824;28;20077;-77
2022/05/07 03:09:40;;;;;;;0.20;0.20;;;;;;;;;;4951336;28;20046;-77
2022/05/07 03:12:06;;;;;;;0.25;0.25;;;;;;;;;;4948590;28;20070;-77
2022/05/07 03:14:32;;;;;;;0.10;0.10;;;;;;;;;;4949086;28;20058;-77
2022/05/07 03:16:59;;;;;;;0.00;0.00;;;;;;;;;;4952154;28;20115;-77
2022/05/07 03:19:25;;;;;;;0.30;0.30;;;;;;;;;;4951540;28;20023;-77
2022/05/07 03:21:51;;;;;;;0.43;0.43;;;;;;;;;;4951091;28;20035;-77
2022/05/07 03:24:17;;;;;;;0.30;0.30;;;;;;;;;;4949863;28;20035;-78
2022/05/07 03:26:44;;;;;;;0.50;0.50;;;;;;;;;;4949160;28;20410;-76
2022/05/07 03:29:10;;;;;;;0.32;0.32;;;;;;;;;;4952068;28;20490;-75
2022/05/07 03:31:38;;;;;;;0.32;0.32;;;;;;;;;;4951570;28;20400;-78
2022/05/07 03:34:05;;;;;;;0.52;0.43;;;;;;;;;;4950536;28;20119;-82
2022/05/07 03:36:31;;;;;;;0.45;0.45;;;;;;;;;;4950435;28;20035;-81
2022/05/07 03:38:57;;;;;;;0.30;0.30;;;;;;;;;;4947429;28;20035;-81
2022/05/07 03:41:23;;;;;;;0.80;0.75;;;;;;;;;;4952334;28;20102;-81
2022/05/07 03:43:49;;;;;;;0.73;0.73;;;;;;;;;;4951733;28;20499;-81
2022/05/07 03:46:15;;;;;;;0.57;0.57;;;;;;;;;;4953157;28;20037;-83
2022/05/07 03:48:41;;;;;;;0.33;0.33;;;;;;;;;;4961073;28;20054;-83
2022/05/07 03:51:07;;;;;;;0.33;0.33;;;;;;;;;;4948196;28;20115;-84
2022/05/07 03:53:33;;;;;;;0.10;0.10;;;;;;;;;;4950882;28;20397;-83
2022/05/07 03:56:04;;;;;;;0.70;0.70;;;;;;;;;;4951950;28;20071;-84
2022/05/07 03:58:30;;;;;;;0.25;0.20;;;;;;;;;;4951466;28;20039;-81
2022/05/07 04:00:57;;;;;;;12.38;0.70;;;;;;;;;;4951076;28;20031;-80
2022/05/07 04:03:23;;;;;;;1.63;1.40;;;;;;;;;;4951108;28;20035;-79
2022/05/07 04:05:50;;;;;;;0.60;0.60;;;;;;;;;;4946769;28;20034;-80
2022/05/07 04:08:16;;;;;;;3.30;0.30;;;;;;;;;;4951458;28;20031;-79
2022/05/07 04:10:43;;;;;;;0.50;0.45;;;;;;;;;;4960128;28;20100;-79
2022/05/07 04:13:10;;;;;;;0.20;0.20;;;;;;;;;;4956413;28;20066;-79
2022/05/07 04:15:37;;;;;;;0.98;0.20;;;;;;;;;;4946876;28;20089;-81
2022/05/07 04:18:02;;;;;;;;;;;;;;;;;;4961960;28;20031;-81
2022/05/07 04:20:28;;;;;;;0.93;0.82;;;;;;;;;;4950400;28;19913;-84
2022/05/07 04:22:54;;;;;;;0.30;0.30;;;;;;;;;;4961390;28;20042;-80
2022/05/07 04:25:20;;;;;;;0.15;0.15;;;;;;;;;;4961698;28;20514;-82
2022/05/07 04:27:46;;;;;;;0.57;0.57;;;;;;;;;;4959500;28;20018;-81
2022/05/07 04:30:13;;;;;;;4.30;0.85;;;;;;;;;;4947768;28;20046;-80
2022/05/07 04:32:39;;;;;;;0.40;0.40;;;;;;;;;;4948842;28;20035;-81
2022/05/07 04:35:06;;;;;;;0.63;0.63;;;;;;;;;;4948581;28;20047;-77
2022/05/07 04:37:32;;;;;;;0.25;0.25;;;;;;;;;;4950510;28;20130;-77
2022/05/07 04:39:58;;;;;;;0.28;0.28;;;;;;;;;;4950799;28;20460;-79
2022/05/07 04:42:24;;;;;;;0.40;0.40;;;;;;;;;;4946172;29;20847;-77
2022/05/07 04:44:51;;;;;;;0.33;0.20;;;;;;;;;;4960689;28;20398;-77
2022/05/07 04:47:17;;;;;;;0.17;0.17;;;;;;;;;;4951241;28;20028;-77
2022/05/07 04:49:43;;;;;;;0.20;0.20;;;;;;;;;;4950290;28;20039;-77
2022/05/07 04:52:10;;;;;;;0.40;0.40;;;;;;;;;;4949963;28;20078;-76
2022/05/07 04:54:37;;;;;;;0.35;0.35;;;;;;;;;;4949815;28;20054;-77
2022/05/07 04:57:04;;;;;;;0.47;0.47;;;;;;;;;;4946255;28;20111;-77
2022/05/07 04:59:30;;;;;;;1.10;0.60;;;;;;;;;;4948414;28;20027;-76
2022/05/07 05:01:56;;;;;;;0.60;0.60;;;;;;;;;;4949939;28;20266;-76
2022/05/07 05:04:22;;;;;;;11.10;0.93;;;;;;;;;;4949542;28;20131;-77
2022/05/07 05:06:48;;;;;;;0.10;0.10;;;;;;;;;;4949475;28;20082;-77
2022/05/07 05:09:15;;;;;;;1.83;0.73;;;;;;;;;;4947501;28;20815;-77
2022/05/07 05:11:41;;;;;;;;;;;;;;;;;;4948369;28;20048;-78
2022/05/07 05:16:53;;;;;;;0.40;0.40;;;;;;;;;;4950263;28;20054;-77
2022/05/07 05:19:19;;;;;;;4.70;1.48;;;;;;;;;;4950055;28;20419;-78
2022/05/07 05:21:46;;;;;;;5.43;1.50;;;;;;;;;;4949546;28;20030;-77
2022/05/07 05:24:12;;;;;;;0.35;0.35;;;;;;;;;;4947344;28;20039;-78
2022/05/07 05:26:38;;;;;;;1.48;0.50;;;;;;;;;;4948608;28;20034;-77
2022/05/07 05:29:04;;;;;;;0.38;0.38;;;;;;;;;;4950243;28;20034;-78
2022/05/07 05:31:31;;;;;;;0.30;0.30;;;;;;;;;;4948179;28;20059;-78
2022/05/07 05:33:57;;;;;;;0.40;0.40;;;;;;;;;;4946873;28;20039;-76
2022/05/07 05:36:27;;;;;;;0.63;0.63;;;;;;;;;;4948742;28;20037;-77
2022/05/07 05:38:53;;;;;;;0.40;0.40;;;;;;;;;;4946058;28;20495;-75
2022/05/07 05:41:20;;;;;;;0.20;0.20;;;;;;;;;;4949958;28;20059;-78
2022/05/07 05:43:46;;;;;;;0.20;0.20;;;;;;;;;;4949322;28;20031;-77
2022/05/07 05:46:14;;;;;;;0.32;0.32;;;;;;;;;;4947923;28;20039;-79
2022/05/07 05:48:40;;;;;;;0.28;0.28;;;;;;;;;;4953588;28;20026;-79
2022/05/07 05:51:07;;;;;;;0.38;0.38;;;;;;;;;;4946783;29;20134;-79
2022/05/07 05:53:33;;;;;;;0.30;0.30;;;;;;;;;;4963689;28;20542;-79
2022/05/07 05:56:00;;;;;;;0.10;0.10;;;;;;;;;;4950141;28;20062;-74
2022/05/07 05:58:32;;;;;;;0.52;0.50;;;;;;;;;;4949516;28;20047;-75
2022/05/07 06:00:59;;;;;;;0.10;0.10;;;;;;;;;;4948937;28;20121;-75
2022/05/07 06:03:25;;;;;;;0.20;0.20;;;;;;;;;;4945010;29;20035;-75
2022/05/07 06:05:51;;;;;;;0.43;0.35;;;;;;;;;;4947702;28;20031;-75
2022/05/07 06:08:17;;;;;;;0.40;0.35;;;;;;;;;;4952624;28;20031;-75
2022/05/07 06:10:43;;;;;;;1.98;1.00;;;;;;;;;;4951972;28;20034;-76
2022/05/07 06:13:09;;;;;;;0.20;0.20;;;;;;;;;;4943888;28;20043;-75
2022/05/07 06:15:36;;;;;;;0.30;0.30;;;;;;;;;;4941605;29;20027;-75
2022/05/07 06:18:02;;;;;;;0.30;0.13;;;;;;;;;;4946271;28;20079;-75
2022/05/07 06:20:28;;;;;;;0.30;0.30;;;;;;;;;;4944413;29;20028;-75
2022/05/07 06:22:58;;;;;;;1.17;0.43;;;;;;;;;;4947327;28;20031;-76
2022/05/07 06:28:08;;;;;;;0.10;0.10;;;;;;;;;;4945262;28;20114;-76
2022/05/07 06:30:35;;;;;;;0.40;0.40;;;;;;;;;;4945038;28;20031;-76
2022/05/07 06:33:01;;;;;;;;;;;;;;;;;;4946989;28;20065;-86
2022/05/07 06:35:27;;;;;;;0.93;0.88;;;;;;;;;;4947868;28;19918;-86
2022/05/07 06:37:53;;;;;;;0.65;0.50;;;;;;;;;;4943160;28;20037;-86
2022/05/07 06:40:19;;;;;;;0.20;0.10;;;;;;;;;;4946119;28;20082;-88
2022/05/07 06:42:46;;;;;;;0.10;0.10;;;;;;;;;;4948157;28;20031;-87
2022/05/07 06:45:13;;;;;;;0.15;0.15;;;;;;;;;;4941014;29;20042;-87
2022/05/07 06:47:39;;;;;;;;;;;;;;;;;;4946499;28;20027;-86
2022/05/07 06:50:05;;;;;;;;;;;;;;;;;;4948094;28;19916;-89
2022/05/07 06:52:30;;;;;;;;;;;;;;;;;;4949520;28;19918;-88
2022/05/07 06:54:56;;;;;;;;;;;;;;;;;;4948786;28;20402;-88
2022/05/07 06:57:25;;;;;;;;;;;;;;;;;;4949042;28;19926;-87
2022/05/07 06:59:52;;;;;;;3.10;0.15;;;;;;;;;;4948462;28;19919;-89
2022/05/07 07:02:18;;;;;;;0.20;0.20;;;;;;;;;;4947936;29;20152;-87
2022/05/07 07:04:44;;;;;;;0.75;0.17;;;;;;;;;;4951697;28;20027;-83
2022/05/07 07:07:10;;;;;;;0.10;0.10;;;;;;;;;;4952953;28;20092;-85
2022/05/07 07:09:36;;;;;;;0.25;0.25;;;;;;;;;;4948408;29;20046;-88
2022/05/07 07:12:06;;;;;;;0.20;0.20;;;;;;;;;;4950939;29;20503;-89
2022/05/07 07:14:33;;;;;;;0.10;0.10;;;;;;;;;;4950160;28;20039;-90
2022/05/07 07:16:59;;;;;;;0.98;0.22;;;;;;;;;;4954886;28;20019;-96
2022/05/07 07:19:25;;;;;;;0.00;0.00;;;;;;;;;;4950832;28;20047;-93
2022/05/07 07:21:52;;;;;;;0.20;0.20;;;;;;;;;;4946910;28;20456;-89
2022/05/07 07:24:18;;;;;;;3.10;0.93;;;;;;;;;;4953614;28;20031;-90
2022/05/07 07:26:45;;;;;;;0.75;0.30;;;;;;;;;;4950942;29;20074;-87
2022/05/07 07:29:11;;;;;;;;;;;;;;;;;;4950247;29;20035;-89
2022/05/07 07:31:37;;;;;;;0.65;0.22;;;;;;;;;;4952357;29;20566;-93
2022/05/07 07:34:03;;;;;;;0.57;0.57;;;;;;;;;;4952159;29;20098;-89
2022/05/07 07:36:29;;;;;;;0.10;0.10;;;;;;;;;;4954176;28;20031;-90
2022/05/07 07:38:55;;;;;;;0.00;0.00;;;;;;;;;;4951090;29;20034;-85
2022/05/07 07:41:21;;;;;;;;;;;;;;;;;;4951757;28;20070;-82
2022/05/07 07:43:47;;;;;;;0.00;0.00;;;;;;;;;;4944317;29;19946;-81
2022/05/07 07:48:58;;;;;;;0.22;0.22;;;;;;;;;;4939167;29;19996;-85
2022/05/07 07:51:24;;;;;;;0.10;0.10;;;;;;;;;;4947841;28;20578;-85
2022/05/07 07:53:50;;;;;;;;;;;;;;;;;;4948276;29;20042;-81
2022/05/07 07:56:16;;;;;;;0.00;0.00;;;;;;;;;;4948291;29;19918;-81
2022/05/07 07:58:42;;;;;;;1.38;0.50;;;;;;;;;;4947753;29;20085;-82
2022/05/07 08:01:08;;;;;;;0.40;0.40;;;;;;;;;;4947408;29;20027;-84
2022/05/07 08:03:34;;;;;;;;;;;;;;;;;;4947072;29;20061;-83
2022/05/07 08:06:00;;;;;;;0.00;0.00;;;;;;;;;;4945780;28;20386;-85
2022/05/07 08:13:56;;;;;;;0.30;0.30;;;;;;;;;;4947992;29;20813;-84
2022/05/07 08:16:22;;;;;;;0.45;0.45;;;;;;;;;;4946443;29;20035;-84
2022/05/07 08:18:50;;;;;;;0.40;0.25;;;;;;;;;;4952542;28;20459;-84
2022/05/07 08:21:16;;;;;;;0.20;0.20;;;;;;;;;;4947015;28;20032;-82
2022/05/07 08:23:42;;;;;;;0.30;0.30;;;;;;;;;;4947882;29;20049;-85
2022/05/07 08:26:09;;;;;;;0.10;0.10;;;;;;;;;;4950555;28;20031;-85
2022/05/07 08:28:36;;;;;;;0.38;0.38;;;;;;;;;;4948214;28;20032;-86
2022/05/07 08:31:02;;;;;;;0.28;0.28;;;;;;;;;;4949150;28;20796;-83
2022/05/07 08:33:29;;;;;;;0.10;0.10;;;;;;;;;;4944424;28;20047;-81
2022/05/07 08:35:55;;;;;;;0.08;0.08;;;;;;;;;;4944059;28;20031;-80
2022/05/07 08:38:22;;;;;;;0.30;0.30;;;;;;;;;;4945569;28;20035;-81
2022/05/07 08:40:48;;;;;;;0.20;0.10;;;;;;;;;;4942678;28;20034;-83
2022/05/07 08:43:16;;;;;;;0.00;0.00;;;;;;;;;;4945913;28;20043;-81
2022/05/07 08:45:42;;;;;;;0.15;0.15;;;;;;;;;;4945444;28;20801;-81
2022/05/07 08:48:09;;;;;;;0.15;0.15;;;;;;;;;;4944600;28;20106;-80
2022/05/07 08:50:35;;;;;;;2.30;0.40;;;;;;;;;;4945651;28;20031;-82
2022/05/07 08:53:02;;;;;;;0.35;0.30;;;;;;;;;;4956405;28;20054;-81
2022/05/07 08:55:28;;;;;;;0.20;0.20;;;;;;;;;;4951630;28;20043;-82
2022/05/07 08:57:54;;;;;;;0.10;0.10;;;;;;;;;;4948267;28;20039;-82
2022/05/07 09:00:21;;;;;;;0.15;0.15;;;;;;;;;;4957580;28;20031;-81
2022/05/07 09:02:49;;;;;;;0.55;0.22;;;;;;;;;;4944142;28;20486;-82
2022/05/07 09:05:20;;;;;;;0.08;0.08;;;;;;;;;;4947792;28;20034;-80
2022/05/07 09:07:53;;;;;;;0.35;0.32;;;;;;;;;;4944373;28;20035;-80
2022/05/07 09:10:19;;;;;;;0.45;0.30;;;;;;;;;;4943936;28;20064;-78
2022/05/07 09:12:45;;;;;;;0.50;0.50;;;;;;;;;;4945175;28;20051;-80
2022/05/07 09:15:12;;;;;;;0.35;0.25;;;;;;;;;;4944380;28;20039;-81
2022/05/07 09:17:38;;;;;;;12.75;1.67;;;;;;;;;;4944507;28;20051;-81
2022/05/07 09:20:11;;;;;;;0.30;0.20;;;;;;;;;;4945429;28;20035;-82
2022/05/07 09:22:48;;;;;;;1.27;0.40;;;;;;;;;;4943590;28;20031;-80
2022/05/07 09:25:19;;;;;;;0.25;0.25;;;;;;;;;;4940743;29;20062;-80
2022/05/07 09:27:46;;;;;;;0.30;0.15;;;;;;;;;;4944999;28;20117;-81
2022/05/07 09:30:12;;;;;;;0.43;0.43;;;;;;;;;;4944144;28;20046;-82
2022/05/07 09:32:38;;;;;;;;;;;;;;;;;;4945812;28;20496;-82
2022/05/07 09:38:01;;;;;;;0.55;0.20;;;;;;;;;;4946041;28;20073;-81
2022/05/07 09:40:27;;;;;;;0.35;0.35;;;;;;;;;;4946050;28;20027;-84
2022/05/07 09:43:00;;;;;;;1.48;0.40;;;;;;;;;;4943392;28;20487;-81
2022/05/07 09:45:27;;;;;;;0.38;0.38;;;;;;;;;;4944325;28;20028;-80
2022/05/07 09:47:56;;;;;;;0.88;0.65;;;;;;;;;;4944806;28;20412;-81
2022/05/07 09:50:24;;;;;;;0.82;0.60;;;;;;;;;;4946285;28;20102;-81
2022/05/07 09:58:21;;;;;;;0.25;0.20;;;;;;;;;;4944676;28;20098;-80
2022/05/07 10:00:50;;;;;;;0.55;0.38;;;;;;;;;;4945226;28;20082;-80
2022/05/07 10:03:31;;;;;;;0.25;0.25;;;;;;;;;;4944508;28;20142;-80
2022/05/07 10:06:00;;;;;;;0.20;0.20;;;;;;;;;;4944390;28;20035;-79
2022/05/07 10:08:35;;;;;;;0.32;0.32;;;;;;;;;;4944253;28;20027;-80
2022/05/07 10:11:03;;;;;;;0.93;0.73;;;;;;;;;;4947851;28;20094;-81
2022/05/07 10:13:29;;;;;;;0.45;0.35;;;;;;;;;;4955422;28;20202;-81
2022/05/07 10:15:59;;;;;;;0.38;0.20;;;;;;;;;;4956904;28;20043;-79
2022/05/07 10:18:33;;;;;;;2.05;0.95;;;;;;;;;;4959157;28;20081;-79
2022/05/07 10:21:03;;;;;;;0.28;0.28;;;;;;;;;;4944897;28;20082;-79
2022/05/07 10:23:29;;;;;;;0.00;0.00;;;;;;;;;;4953716;28;20035;-79
2022/05/07 10:25:57;;;;;;;0.10;0.10;;;;;;;;;;4939044;28;20110;-79
2022/05/07 10:28:23;;;;;;;0.80;0.30;;;;;;;;;;4946732;28;20043;-79
2022/05/07 10:30:49;;;;;;;0.15;0.10;;;;;;;;;;4948701;28;20039;-79
2022/05/07 10:33:15;;;;;;;0.38;0.38;;;;;;;;;;4945708;28;20054;-81
2022/05/07 10:35:42;;;;;;;0.93;0.43;;;;;;;;;;4947147;28;20028;-78
2022/05/07 10:38:09;;;;;;;0.22;0.22;;;;;;;;;;4951016;28;20039;-81
2022/05/07 10:40:35;;;;;;;0.65;0.65;;;;;;;;;;4946683;28;20031;-81
2022/05/07 10:43:01;;;;;;;0.25;0.25;;;;;;;;;;4947952;28;20515;-81
2022/05/07 10:45:27;;;;;;;0.30;0.30;;;;;;;;;;4945926;28;20030;-81
2022/05/07 10:48:00;;;;;;;0.10;0.10;;;;;;;;;;4947515;28;20046;-81
2022/05/07 10:50:38;;;;;;;0.40;0.40;;;;;;;;;;4948976;28;20019;-81
2022/05/07 10:53:04;;;;;;;0.05;0.05;;;;;;;;;;4947028;28;20051;-80
2022/05/07 10:55:30;;;;;;;0.35;0.35;;;;;;;;;;4949288;28;20081;-81
2022/05/07 10:58:00;;;;;;;0.17;0.17;;;;;;;;;;4948373;28;20038;-81
2022/05/07 11:00:27;;;;;;;0.28;0.28;;;;;;;;;;4946225;28;20483;-81
2022/05/07 11:03:00;;;;;;;0.30;0.30;;;;;;;;;;4942132;28;20043;-78
2022/05/07 11:05:33;;;;;;;0.60;0.60;;;;;;;;;;4947714;28;20035;-79
2022/05/07 11:07:59;;;;;;;0.10;0.10;;;;;;;;;;4951777;28;20546;-79
2022/05/07 11:10:26;;;;;;;0.00;0.00;;;;;;;;;;4952245;28;20039;-79
2022/05/07 11:12:52;;;;;;;0.68;0.65;;;;;;;;;;4951779;28;20629;-79
2022/05/07 11:15:25;;;;;;;0.10;0.10;;;;;;;;;;4947758;28;20035;-79
2022/05/07 11:17:51;;;;;;;0.45;0.20;;;;;;;;;;4946210;28;20035;-79
2022/05/07 11:20:32;;;;;;;0.00;0.00;;;;;;;;;;4949253;28;20031;-78
2022/05/07 11:23:03;;;;;;;0.10;0.10;;;;;;;;;;4949545;28;20046;-78
2022/05/07 11:25:30;;;;;;;0.00;0.00;;;;;;;;;;4947694;28;20023;-79
2022/05/07 11:27:57;;;;;;;0.10;0.10;;;;;;;;;;4950420;28;20050;-79
2022/05/07 11:30:24;;;;;;;0.40;0.40;;;;;;;;;;4947812;28;20049;-79
2022/05/07 11:32:50;;;;;;;0.20;0.20;;;;;;;;;;4946495;28;20038;-78
2022/05/07 11:35:16;;;;;;;0.00;0.00;;;;;;;;;;4951494;28;20039;-78
2022/05/07 11:37:42;;;;;;;;;;;;;;;;;;4950729;28;20039;-79
2022/05/07 11:40:08;;;;;;;;;;;;;;;;;;4948740;28;19915;-79
2022/05/07 11:42:49;;;;;;;0.20;0.20;;;;;;;;;;4945841;29;19918;-79
2022/05/07 11:45:33;;;;;;;0.30;0.30;;;;;;;;;;4944327;29;20082;-78
2022/05/07 11:48:13;;;;;;;0.20;0.20;;;;;;;;;;4946075;28;20042;-76
2022/05/07 11:50:59;;;;;;;0.30;0.30;;;;;;;;;;4944566;29;20034;-79
2022/05/07 11:53:35;;;;;;;0.15;0.15;;;;;;;;;;4945658;29;20053;-78
2022/05/07 11:56:08;;;;;;;0.10;0.10;;;;;;;;;;4944997;29;20035;-78
2022/05/07 11:58:49;;;;;;;0.10;0.10;;;;;;;;;;4945574;28;20046;-78
2022/05/07 12:01:19;;;;;;;0.00;0.00;;;;;;;;;;4945623;28;20047;-78
2022/05/07 12:03:45;;;;;;;0.00;0.00;;;;;;;;;;4944919;28;20035;-78
2022/05/07 12:06:12;;;;;;;0.00;0.00;;;;;;;;;;4943744;29;20094;-78
2022/05/07 12:08:38;;;;;;;0.20;0.20;;;;;;;;;;4946363;28;20065;-78
2022/05/07 12:11:04;;;;;;;0.10;0.10;;;;;;;;;;4945693;28;20503;-78
2022/05/07 12:13:31;;;;;;;0.20;0.20;;;;;;;;;;4945121;28;20055;-79
2022/05/07 12:18:47;;;;;;;0.00;0.00;;;;;;;;;;4945282;29;20622;-79
2022/05/07 12:21:13;;;;;;;0.55;0.40;;;;;;;;;;4945046;28;20129;-79
2022/05/07 12:31:53;;;;;;;0.10;0.10;;;;;;;;;;4944818;29;20520;-78
2022/05/07 12:34:19;;;;;;;0.10;0.10;;;;;;;;;;4944718;28;20125;-77
2022/05/07 12:36:45;;;;;;;0.15;0.15;;;;;;;;;;4945017;28;20031;-77
2022/05/07 12:39:11;;;;;;;0.25;0.25;;;;;;;;;;4944417;28;20035;-77
2022/05/07 12:41:41;;;;;;;0.20;0.20;;;;;;;;;;4944368;28;20086;-77
2022/05/07 12:44:07;;;;;;;0.75;0.57;;;;;;;;;;4944141;29;20086;-77
2022/05/07 12:46:33;;;;;;;0.10;0.10;;;;;;;;;;4944041;28;20039;-77
2022/05/07 12:48:59;;;;;;;1.13;0.47;;;;;;;;;;4944383;29;20027;-77
2022/05/07 12:51:28;;;;;;;0.05;0.05;;;;;;;;;;4943705;28;20047;-77
2022/05/07 12:53:54;;;;;;;0.20;0.20;;;;;;;;;;4944198;28;21393;-77
2022/05/07 12:56:22;;;;;;;0.17;0.17;;;;;;;;;;4944858;28;20027;-76
2022/05/07 12:58:49;;;;;;;0.00;0.00;;;;;;;;;;4944553;29;20099;-77
2022/05/07 13:01:15;;;;;;;0.32;0.30;;;;;;;;;;4943980;28;20027;-77
2022/05/07 13:03:41;;;;;;;0.13;0.13;;;;;;;;;;4942446;29;20046;-77
2022/05/07 13:06:07;;;;;;;0.30;0.30;;;;;;;;;;4942910;29;20038;-77
2022/05/07 13:08:33;;;;;;;0.80;0.22;;;;;;;;;;4944826;28;20579;-77
2022/05/07 13:11:00;;;;;;;0.13;0.10;;;;;;;;;;4944177;29;20106;-77
2022/05/07 13:13:26;;;;;;;0.00;0.00;;;;;;;;;;4943974;28;20039;-77
2022/05/07 13:15:52;;;;;;;2.47;0.50;;;;;;;;;;4943870;29;20109;-77
2022/05/07 13:18:20;;;;;;;0.93;0.43;;;;;;;;;;4944126;28;20950;-77
2022/05/07 13:20:46;;;;;;;0.45;0.40;;;;;;;;;;4944191;28;20035;-77
2022/05/07 13:23:13;;;;;;;0.00;0.00;;;;;;;;;;4942858;29;20043;-77
2022/05/07 13:25:39;;;;;;;;;;;;;;;;;;4943195;29;20035;-77
2022/05/07 13:28:05;;;;;;;0.25;0.25;;;;;;;;;;4943423;28;19920;-77
2022/05/07 13:30:32;;;;;;;0.00;0.00;;;;;;;;;;4942914;29;20031;-77
2022/05/07 13:32:58;;;;;;;0.00;0.00;;;;;;;;;;4943042;28;20070;-77
2022/05/07 13:35:24;;;;;;;0.28;0.13;;;;;;;;;;4943973;28;20035;-77
2022/05/07 13:37:50;;;;;;;1.10;0.30;;;;;;;;;;4943135;29;20513;-77
2022/05/07 13:40:16;;;;;;;0.00;0.00;;;;;;;;;;4943465;28;20042;-77
2022/05/07 13:42:42;;;;;;;0.10;0.08;;;;;;;;;;4943668;28;20035;-77
2022/05/07 13:45:10;;;;;;;0.17;0.17;;;;;;;;;;4943537;28;20045;-77
2022/05/07 13:47:39;;;;;;;1.88;0.28;;;;;;;;;;4943758;28;20499;-75
2022/05/07 13:50:06;;;;;;;0.40;0.30;;;;;;;;;;4943561;29;20043;-77
2022/05/07 13:52:50;;;;;;;0.80;0.43;;;;;;;;;;4942937;29;20219;-77
2022/05/07 13:55:16;;;;;;;0.90;0.30;;;;;;;;;;4941841;29;20419;-77
2022/05/07 13:57:42;;;;;;;0.00;0.00;;;;;;;;;;4943389;28;20557;-77
2022/05/07 14:00:09;;;;;;;0.00;0.00;;;;;;;;;;4942913;28;20035;-76
2022/05/07 14:02:37;;;;;;;0.22;0.22;;;;;;;;;;4944818;28;20031;-77
2022/05/07 14:05:04;;;;;;;0.22;0.22;;;;;;;;;;4947120;29;20035;-77
2022/05/07 14:07:30;;;;;;;0.10;0.10;;;;;;;;;;4947078;28;20031;-76
2022/05/07 14:09:57;;;;;;;0.03;0.03;;;;;;;;;;4946809;28;20039;-77
2022/05/07 14:12:23;;;;;;;0.00;0.00;;;;;;;;;;4946763;29;20058;-76
2022/05/07 14:14:50;;;;;;;0.10;0.10;;;;;;;;;;4946604;29;20035;-77
2022/05/07 14:17:16;;;;;;;;;;;;;;;;;;4947805;28;20074;-77
2022/05/07 14:19:42;;;;;;;0.55;0.47;;;;;;;;;;4946620;28;20082;-77
2022/05/07 14:22:08;;;;;;;0.10;0.10;;;;;;;;;;4946982;28;20031;-77
2022/05/07 14:24:35;;;;;;;0.10;0.10;;;;;;;;;;4946768;29;20043;-77
2022/05/07 14:27:01;;;;;;;;;;;;;;;;;;4947188;28;20039;-77
2022/05/07 14:29:27;;;;;;;0.43;0.32;;;;;;;;;;4947619;28;20733;-77
2022/05/07 14:31:55;;;;;;;;;;;;;;;;;;4946991;28;20039;-77
2022/05/07 14:34:21;;;;;;;0.00;0.00;;;;;;;;;;4946462;28;20012;-78
2022/05/07 14:36:47;;;;;;;0.35;0.32;;;;;;;;;;4946440;28;20027;-78
2022/05/07 14:39:13;;;;;;;0.05;0.05;;;;;;;;;;4946526;28;20507;-79
2022/05/07 14:41:40;;;;;;;0.00;0.00;;;;;;;;;;4944080;29;20023;-78
2022/05/07 14:44:06;;;;;;;0.00;0.00;;;;;;;;;;4946082;29;20031;-78
2022/05/07 14:46:32;;;;;;;0.00;0.00;;;;;;;;;;4947144;29;20053;-78
2022/05/07 14:48:58;;;;;;;0.13;0.13;;;;;;;;;;4947592;29;20078;-79
2022/05/07 14:51:25;;;;;;;0.00;0.00;;;;;;;;;;4946954;28;20043;-78
2022/05/07 14:53:51;;;;;;;0.35;0.35;;;;;;;;;;4946630;28;20046;-78
2022/05/07 14:56:17;;;;;;;0.10;0.10;;;;;;;;;;4947159;28;20023;-78
2022/05/07 14:58:43;;;;;;;0.00;0.00;;;;;;;;;;4946781;28;20035;-78
2022/05/07 15:01:09;;;;;;;0.10;0.10;;;;;;;;;;4946112;29;20118;-78
2022/05/07 15:03:35;;;;;;;0.03;0.03;;;;;;;;;;4945894;29;20066;-79
2022/05/07 15:06:01;;;;;;;0.05;0.05;;;;;;;;;;4945506;28;20068;-79
2022/05/07 15:11:20;;;;;;;0.00;0.00;;;;;;;;;;4885941;29;20177;-78
2022/05/07 15:13:47;;;;;;;0.00;0.00;;;;;;;;;;4885276;29;20478;-78
2022/05/07 15:16:13;;;;;;;0.25;0.10;;;;;;;;;;4885583;29;20044;-78
2022/05/07 15:18:39;;;;;;;0.13;0.13;;;;;;;;;;4882261;29;20029;-79
2022/05/07 15:21:06;;;;;;;0.20;0.20;;;;;;;;;;4861751;29;20040;-78
2022/05/07 15:23:32;;;;;;;0.03;0.03;;;;;;;;;;4879814;29;20044;-79
2022/05/07 15:25:58;;;;;;;0.05;0.05;;;;;;;;;;4879631;29;20119;-78
2022/05/07 15:28:24;;;;;;;0.10;0.10;;;;;;;;;;4883273;29;20053;-79
2022/05/07 15:30:53;;;;;;;0.00;0.00;;;;;;;;;;4882898;29;20032;-82